Latest Weather Observations for Barrow Island

IDW60801

Issued at 11:32 am WST Friday 4 September 2015 (issued every 30 minutes, with the page automatically refreshed every 10 minutes)

About weather observations | Map of weather stations | Latest weather observations for WA | Other Formats
Station Details ID: 005094 Name: BARROW ISLAND AIRPORT Lat: -20.88 Lon: 115.41 Height: 6.4 m
Data from the previous 72 hours. | See also: Recent months at Barrow Island
Date/Time
WST
Temp
°C
App
Temp
°C
Dew
Point
Rel
Hum
%
Delta-T
°C
Wind Press
QNH
hPa
Press
MSL
hPa
Rain
since 9 am
mm
Dir
 
Spd
km/h
Gust
km/h
Spd
kts
Gust
kts
04/11:30am 22.3 17.8 11.4 50 6.1 SSW 26 30 14 16 1019.0 - 0.0
04/11:00am 21.6 16.9 10.7 50 6.0 SSW 26 30 14 16 1019.2 - 0.0
04/10:30am 21.4 16.5 11.4 53 5.5 SSW 28 33 15 18 1019.3 - 0.0
04/10:00am 21.2 16.2 12.1 56 5.1 SSW 30 35 16 19 1019.5 - 0.0
04/09:30am 20.7 15.6 11.9 57 4.9 SSW 30 33 16 18 1019.6 - 0.0
04/09:00am 20.4 15.7 11.9 58 4.7 SSW 28 32 15 17 1019.4 1019.4 0.0
04/08:30am 20.2 15.0 10.3 53 5.3 SSW 28 32 15 17 1019.2 - 0.0
04/08:00am 19.8 14.8 11.0 57 4.8 SSW 28 33 15 18 1018.9 - 0.0
04/07:30am 19.2 13.9 11.3 60 4.3 SSW 30 33 16 18 1018.6 - 0.0
04/07:00am 19.1 14.1 12.1 64 3.9 SSW 30 33 16 18 1018.3 - 0.0
04/06:30am 18.7 14.0 12.0 65 3.7 SSW 28 32 15 17 1018.2 - 0.0
04/06:00am 18.9 15.0 13.3 70 3.2 SSW 26 32 14 17 1017.9 1017.9 0.0
04/05:30am 19.1 14.6 13.7 71 3.1 S 30 35 16 19 1017.3 - 0.0
04/05:00am 19.2 14.8 14.0 72 3.0 SSW 30 35 16 19 1017.2 - 0.0
04/04:30am 19.3 14.8 13.9 71 3.1 SSW 30 37 16 20 1017.0 - 0.0
04/04:00am 19.3 15.5 14.6 74 2.7 SSW 28 35 15 19 1016.8 - 0.0
04/03:30am 19.4 15.4 15.3 77 2.4 SSW 30 33 16 18 1017.0 - 0.0
04/03:00am 19.6 16.4 15.3 76 2.5 SSW 26 32 14 17 1017.3 1017.3 0.0
04/02:30am 19.8 16.3 15.4 76 2.6 SSW 28 33 15 18 1017.4 - 0.0
04/02:00am 20.0 16.5 15.6 76 2.6 SSW 28 35 15 19 1017.6 - 0.0
04/01:30am 20.0 16.5 15.6 76 2.6 SSW 28 33 15 18 1017.6 - 0.0
04/01:00am 20.4 17.4 15.8 75 2.7 SW 26 32 14 17 1017.9 - 0.0
04/12:30am 20.0 18.0 15.4 75 2.7 SW 20 24 11 13 1018.2 - 0.0
04/12:00am 20.0 17.1 15.2 74 2.8 SW 24 30 13 16 1018.2 1018.2 0.0
 
Date/Time
WST
Temp
°C
App
Temp
°C
Dew
Point
Rel
Hum
%
Delta-T
°C
Wind Press
QNH
hPa
Press
MSL
hPa
Rain
since 9 am
mm
Dir
 
Spd
km/h
Gust
km/h
Spd
kts
Gust
kts
03/11:30pm 19.7 17.7 15.4 76 2.5 WSW 20 26 11 14 1018.5 - 0.0
03/11:00pm 19.6 17.5 15.3 76 2.5 WSW 20 24 11 13 1018.5 - 0.0
03/10:30pm 19.8 17.4 15.4 76 2.6 WSW 22 28 12 15 1018.7 - 0.0
03/10:00pm 19.2 17.4 15.5 79 2.2 WSW 19 22 10 12 1018.8 - 0.0
03/09:30pm 18.1 15.5 14.8 81 1.9 W 22 24 12 13 1018.5 - 0.0
03/09:00pm 18.1 15.9 14.4 79 2.1 W 19 20 10 11 1018.7 1018.7 0.0
03/08:30pm 18.2 16.3 14.1 77 2.3 W 17 20 9 11 1018.7 - 0.0
03/08:00pm 18.4 16.0 13.9 75 2.6 W 19 20 10 11 1018.6 - 0.0
03/07:30pm 19.2 17.1 13.6 70 3.2 W 17 20 9 11 1018.4 - 0.0
03/07:00pm 19.7 17.5 13.4 67 3.6 WSW 17 19 9 10 1018.0 - 0.0
03/06:30pm 20.3 17.6 12.8 62 4.2 WSW 19 20 10 11 1017.6 - 0.0
03/06:00pm 21.2 18.0 11.8 55 5.2 WSW 20 26 11 14 1017.3 1017.3 0.0
03/05:30pm 22.2 18.1 10.0 46 6.6 WSW 22 26 12 14 1017.1 - 0.0
03/05:00pm 22.5 18.4 11.6 50 6.1 WSW 24 30 13 16 1017.1 - 0.0
03/04:30pm 22.7 18.6 12.6 53 5.8 SW 26 30 14 16 1017.1 - 0.0
03/04:00pm 22.7 18.3 11.7 49 6.2 SW 26 30 14 16 1016.9 - 0.0
03/03:30pm 22.7 18.6 11.4 49 6.3 SW 24 30 13 16 1016.9 - 0.0
03/03:00pm 22.9 18.6 11.9 50 6.2 SW 26 30 14 16 1017.2 1017.2 0.0
03/02:30pm 22.7 18.8 12.0 50 6.0 SW 24 28 13 15 1017.3 - 0.0
03/02:00pm 22.3 18.3 11.7 51 5.9 SSW 24 28 13 15 1017.4 - 0.0
03/01:30pm 22.1 17.8 12.1 53 5.6 SSW 26 30 14 16 1017.8 - 0.0
03/01:00pm 21.9 18.1 12.5 55 5.3 SSW 24 28 13 15 1018.2 - 0.0
03/12:30pm 21.5 17.5 11.8 54 5.4 SSW 24 26 13 14 1018.5 - 0.0
03/12:00pm 21.6 18.2 12.5 56 5.1 SSW 22 26 12 14 1018.6 1018.6 0.0
03/11:30am 21.1 17.1 10.6 51 5.7 SSW 22 26 12 14 1018.9 - 0.0
03/11:00am 21.2 17.0 11.2 53 5.5 S 24 26 13 14 1019.2 - 0.0
03/10:30am 21.2 17.2 11.8 55 5.2 S 24 26 13 14 1019.3 - 0.0
03/10:00am 20.5 16.5 11.7 57 4.9 S 24 30 13 16 1019.1 - 0.0
03/09:30am 20.3 16.0 12.0 59 4.6 S 26 32 14 17 1019.0 - 0.0
03/09:00am 19.8 15.0 11.8 60 4.4 S 28 32 15 17 1018.7 1018.7 0.0
03/08:30am 19.5 14.8 12.0 62 4.2 S 28 32 15 17 1018.3 - 0.0
03/08:00am 19.2 13.7 10.7 58 4.6 S 30 35 16 19 1018.1 - 0.0
03/07:30am 18.6 13.1 10.4 59 4.4 S 30 35 16 19 1017.9 - 0.0
03/07:00am 18.4 12.5 10.3 59 4.3 S 32 37 17 20 1017.6 - 0.0
03/06:30am 18.2 11.8 9.5 57 4.6 S 33 41 18 22 1017.3 - 0.0
03/06:00am 18.5 11.9 10.1 58 4.5 S 35 41 19 22 1017.1 1017.1 0.0
03/05:30am 18.5 11.5 10.1 58 4.5 S 37 43 20 23 1016.7 - 0.0
03/05:00am 18.7 12.3 10.8 60 4.3 S 35 41 19 22 1016.5 - 0.0
03/04:30am 18.9 12.8 11.7 63 4.0 S 35 39 19 21 1016.5 - 0.0
03/04:00am 19.1 14.2 12.6 66 3.6 S 30 35 16 19 1016.5 - 0.0
03/03:30am 19.2 13.6 12.0 63 4.0 S 33 41 18 22 1016.7 - 0.0
03/03:00am 19.3 13.3 12.1 63 4.0 S 35 41 19 22 1016.8 1016.8 0.0
03/02:30am 19.7 13.8 12.5 63 4.0 SSW 35 39 19 21 1017.0 - 0.0
03/02:00am 20.0 14.7 13.2 65 3.9 SSW 33 41 18 22 1017.2 - 0.0
03/01:30am 20.6 15.7 13.6 64 4.0 S 32 37 17 20 1017.3 - 0.0
03/01:00am 20.7 14.6 11.9 57 4.9 SSW 35 41 19 22 1017.4 - 0.0
03/12:30am 21.0 15.1 12.4 58 4.8 SSW 35 39 19 21 1017.6 - 0.0
03/12:00am 21.3 16.3 13.5 61 4.5 SSW 32 35 17 19 1017.9 1017.9 0.0
 
Date/Time
WST
Temp
°C
App
Temp
°C
Dew
Point
Rel
Hum
%
Delta-T
°C
Wind Press
QNH
hPa
Press
MSL
hPa
Rain
since 9 am
mm
Dir
 
Spd
km/h
Gust
km/h
Spd
kts
Gust
kts
02/11:30pm 21.5 17.8 14.9 66 3.9 SSW 28 32 15 17 1018.0 - 0.0
02/11:00pm 21.5 18.7 15.3 68 3.7 SSW 24 26 13 14 1018.1 - 0.0
02/10:30pm 21.4 19.0 15.3 68 3.6 SSW 22 24 12 13 1018.0 - 0.0
02/10:00pm 21.2 18.1 14.4 65 4.0 SSW 24 28 13 15 1018.1 - 0.0
02/09:30pm 20.3 19.7 15.7 75 2.7 SW 13 19 7 10 1018.1 - 0.0
02/09:00pm 20.2 20.4 14.6 70 3.3 SW 7 9 4 5 1018.1 1018.1 0.0
02/08:30pm 20.5 20.8 14.6 69 3.4 W 6 7 3 4 1018.0 - 0.0
02/08:00pm 20.3 20.5 14.2 68 3.5 NNW 6 7 3 4 1017.6 - 0.0
02/07:30pm 20.4 20.3 13.8 66 3.8 N 7 9 4 5 1017.1 - 0.0
02/07:00pm 20.7 20.0 14.4 67 3.7 NNE 11 11 6 6 1016.7 - 0.0
02/06:30pm 21.6 20.6 14.7 65 4.1 NNE 13 13 7 7 1016.5 - 0.0
02/06:00pm 22.8 21.8 14.6 60 4.8 NNE 13 17 7 9 1016.1 1016.1 0.0
02/05:30pm 23.6 21.6 15.4 60 4.9 NE 20 24 11 13 1015.8 - 0.0
02/05:00pm 23.7 20.5 15.2 59 5.1 NE 26 30 14 16 1015.5 - 0.0
02/04:30pm 24.1 19.8 14.5 55 5.7 NE 30 35 16 19 1015.1 - 0.0
02/04:00pm 24.4 19.9 15.3 57 5.5 NE 33 39 18 21 1014.6 - 0.0
02/03:30pm 24.5 19.8 14.9 55 5.7 NE 33 39 18 21 1014.9 - 0.0
02/03:00pm 24.2 18.6 13.4 51 6.3 NE 35 41 19 22 1014.9 1014.9 0.0
02/02:30pm 24.6 19.9 14.4 53 6.0 NE 32 35 17 19 1015.3 - 0.0
02/02:00pm 24.1 19.5 13.6 52 6.1 ENE 30 35 16 19 1015.6 - 0.0
02/01:30pm 24.3 20.5 13.5 51 6.3 ENE 26 30 14 16 1016.0 - 0.0
02/01:00pm 24.5 19.9 11.1 43 7.5 ENE 26 33 14 18 1016.2 - 0.0
02/12:30pm 24.5 20.0 11.5 44 7.3 ENE 26 30 14 16 1016.6 - 0.0
02/12:00pm 24.3 19.5 11.6 45 7.2 ENE 28 32 15 17 1017.0 1017.0 0.0
02/11:30am 24.2 19.3 11.2 44 7.3 E 28 32 15 17 1017.4 - 0.0
02/11:00am 24.2 20.0 11.2 44 7.3 ENE 24 33 13 18 1017.5 - 0.0
02/10:30am 24.1 20.9 11.1 44 7.3 E 19 22 10 12 1017.8 - 0.0
02/10:00am 23.1 20.1 11.8 49 6.4 ESE 19 24 10 13 1017.6 - 0.0
02/09:30am 23.0 20.4 13.8 56 5.4 SE 20 24 11 13 1017.2 - 0.0
02/09:00am 21.7 18.3 12.5 56 5.2 SSE 22 24 12 13 1016.8 1016.8 0.0
02/08:30am 21.2 18.0 13.1 60 4.6 SSE 22 26 12 14 1016.3 - 0.0
02/08:00am 20.3 15.7 11.2 56 5.0 SSE 26 30 14 16 1016.1 - 0.0
02/07:30am 20.0 15.2 11.7 59 4.6 SSE 28 32 15 17 1015.9 - 0.0
02/07:00am 19.7 15.0 12.0 61 4.3 SSE 28 32 15 17 1015.7 - 0.0
02/06:30am 19.6 14.8 11.6 60 4.4 SSE 28 32 15 17 1015.4 - 0.0
02/06:00am 19.7 15.0 12.0 61 4.3 SSE 28 35 15 19 1015.1 1015.1 0.0
02/05:30am 19.7 14.7 12.2 62 4.2 S 30 35 16 19 1014.8 - 0.0
02/05:00am 20.0 14.5 12.0 60 4.5 S 32 37 17 20 1014.6 - 0.0
02/04:30am 20.3 14.5 11.5 57 4.9 S 33 37 18 20 1014.5 - 0.0
02/04:00am 20.5 15.1 12.2 59 4.6 S 32 37 17 20 1014.5 - 0.0
02/03:30am 20.8 15.1 11.2 54 5.3 S 32 37 17 20 1014.6 - 0.0
02/03:00am 21.0 14.9 10.5 51 5.7 S 33 39 18 21 1014.7 1014.7 0.0
02/02:30am 21.2 15.5 11.0 52 5.6 S 32 37 17 20 1014.9 - 0.0
02/02:00am 21.3 15.6 11.1 52 5.6 S 32 35 17 19 1015.1 - 0.0
02/01:30am 21.5 16.8 12.1 55 5.3 S 28 32 15 17 1015.5 - 0.0
02/01:00am 21.2 17.2 11.8 55 5.2 S 24 30 13 16 1015.7 - 0.0
02/12:30am 21.6 17.8 13.5 60 4.7 S 26 30 14 16 1015.9 - 0.0
02/12:00am 21.8 18.0 12.4 55 5.3 S 24 28 13 15 1016.1 1016.1 0.0
 
Date/Time
WST
Temp
°C
App
Temp
°C
Dew
Point
Rel
Hum
%
Delta-T
°C
Wind Press
QNH
hPa
Press
MSL
hPa
Rain
since 9 am
mm
Dir
 
Spd
km/h
Gust
km/h
Spd
kts
Gust
kts
01/11:30pm 21.8 18.7 13.4 59 4.8 SSW 22 26 12 14 1016.2 - 0.0
01/11:00pm 20.8 19.1 15.8 73 3.0 SW 19 22 10 12 1016.3 - 0.0
01/10:30pm 20.8 18.8 15.6 72 3.1 WSW 20 24 11 13 1016.3 - 0.0
01/10:00pm 20.9 18.1 14.3 66 3.8 WSW 22 28 12 15 1016.4 - 0.0
01/09:30pm 20.9 17.9 13.8 64 4.1 WSW 22 26 12 14 1016.3 - 0.0
01/09:00pm 21.1 18.1 13.8 63 4.2 WSW 22 28 12 15 1016.2 1016.2 0.0
01/08:30pm 20.8 17.6 13.0 61 4.4 WSW 22 28 12 15 1016.1 - 0.0
01/08:00pm 20.7 17.2 13.4 63 4.2 WSW 24 30 13 16 1016.0 - 0.0
01/07:30pm 20.8 17.3 13.3 62 4.3 WSW 24 30 13 16 1015.7 - 0.0
01/07:00pm 20.9 17.4 13.4 62 4.3 WSW 24 30 13 16 1015.3 - 0.0
01/06:30pm 21.3 17.8 12.2 56 5.1 W 22 28 12 15 1015.2 - 0.0
01/06:00pm 22.2 18.3 12.2 53 5.6 W 24 30 13 16 1014.9 1014.9 0.0
01/05:30pm 23.3 19.3 11.7 48 6.5 W 24 30 13 16 1014.7 - 0.0
01/05:00pm 24.1 19.6 10.0 41 7.7 WSW 24 30 13 16 1014.7 - 0.0
01/04:30pm 24.4 19.8 9.6 39 8.1 WSW 24 30 13 16 1014.6 - 0.0
01/04:00pm 24.6 19.9 10.5 41 7.8 WSW 26 30 14 16 1014.7 - 0.0
01/03:30pm 24.8 20.9 9.5 38 8.4 WSW 20 26 11 14 1014.7 - 0.0
01/03:00pm 24.9 20.8 8.8 36 8.7 SW 20 24 11 13 1014.8 1014.8 0.0
01/02:30pm 24.5 20.9 10.4 41 7.8 SW 20 24 11 13 1015.0 - 0.0
01/02:00pm 24.6 22.1 12.2 46 7.1 SSW 17 19 9 10 1015.5 - 0.0
01/01:30pm 25.1 22.4 13.0 47 7.0 S 19 22 10 12 1015.7 - 0.0
01/01:00pm 24.1 20.9 11.8 46 7.0 S 20 24 11 13 1016.0 - 0.0
01/12:30pm 24.0 20.9 13.5 52 6.1 S 22 28 12 15 1016.4 - 0.0
01/12:00pm 23.6 19.9 11.6 47 6.7 S 22 26 12 14 1016.8 1016.8 0.0

Other Formats:

Comma delimited format used in spreadsheet applications
http://www.bom.gov.au/fwo/IDW60801/IDW60801.95304.axf

JavaScript Object Notation format (JSON) in row-major order
http://www.bom.gov.au/fwo/IDW60801/IDW60801.95304.json